James Reserve, California Weather observations

Data are for 10 minute period ending at time listed.
 Day   Time   Solar   Ave.   Ave.  Ave.  Vector  Max.   Baro.   Total    
  of    of     Rad.   Air    Rel.  Wind   Wind   Wind  Press.  Precip.   
Year   Day            Temp.  Hum.  Speed  Dir.   Gust                    
2017   (PST)  Kw/m2    F      %     mph   deg.    mph    mb.     in.     
-------------------------------------------------------------------------
  84   14:50   0.53   48.2    68    0.8     5     1.8   836.0    0.00 
  84   15:00   0.09   46.7    72    0.7   124     1.7   836.0    0.00 
  84   15:10   0.57   46.9    71    0.8    17     2.4   836.0    0.00 
  84   15:20   0.62   48.3    69    0.5   290     1.3   836.0    0.00 
  84   15:30   0.51   48.4    69    0.9   151     2.7   836.0    0.00 
  84   15:40   0.18   47.7    68    1.2   153     2.4   836.0    0.00 
  84   15:50   0.17   47.2    69    0.7   305     2.3   836.0    0.00 
  84   16:00   0.18   47.3    68    0.8    28     2.1   836.0    0.00 
  84   16:10   0.14   47.7    69    0.9   176     2.0   836.0    0.00 
  84   16:20   0.14   47.3    72    0.6   226     2.4   836.0    0.00 
  84   16:30   0.12   46.1    76    0.8   198     2.5   836.0    0.00 
  84   16:40   0.08   45.9    75    0.6    19     1.9   836.0    0.00 
  84   16:50   0.02   44.9    78    0.3   156     1.2   836.0    0.00 
  84   17:00   0.03   44.2    81    0.3    40     1.1   836.0    0.00 
  84   17:10   0.06   44.4    81    0.3   287     0.7   836.0    0.00 
  84   17:20   0.10   45.0    80    0.6    12     1.7   836.0    0.00 
  84   17:30   0.04   45.1    82    0.4    59     1.5   836.0    0.00 
  84   17:40   0.01   44.2    86    0.5   109     1.3   836.0    0.00 
  84   17:50   0.01   44.1    88    0.3   104     1.1   836.0    0.00 
  84   18:00   0.00   43.9    87    0.3    49     0.9   836.0    0.00 
  84   18:10   0.00   43.1    89    0.3   301     0.4   836.0    0.00 
  84   18:20   0.00   42.2    90    0.4    30     1.0   836.0    0.00 
  84   18:30   0.00   42.2    90    0.3   334     0.7   836.0    0.00 
  84   18:40   0.00   42.5    90    0.2   107     0.6   836.0    0.00 
  84   18:50   0.00   42.7    89    0.3     2     0.7   836.0    0.00 
  84   19:00   0.00   42.6    90    0.3    24     0.6   836.0    0.00 
  84   19:10   0.00   42.6    90    0.4    49     0.6   836.0    0.00 
  84   19:20   0.00   42.6    90    0.2   303     0.4   836.0    0.00 
  84   19:30   0.00   43.0    91    0.3   158     0.6   836.0    0.00 
  84   19:40   0.00   42.9    93    0.3    74     0.9   836.0    0.00 
  84   19:50   0.00   42.8    93    0.4   134     0.7   836.0    0.00 
  84   20:00   0.00   42.9    94    0.5   184     1.1   836.0    0.00 
  84   20:10   0.00   42.8    95    0.5    93     1.2   836.0    0.00 
  84   20:20   0.00   42.5    96    0.5    37     1.3   836.0    0.00 
  84   20:30   0.00   42.3    96    0.3   198     1.1   836.0    0.00 
  84   20:40   0.00   42.2    96    0.7   231     1.3   836.0    0.00 
  84   20:50   0.00   42.2    96    0.5   244     1.1   836.0    0.00 
  84   21:00   0.00   42.0    97    0.3   221     0.9   836.0    0.00 
  84   21:10   0.00   42.0    97    0.2   320     1.0   836.0    0.00 
  84   21:20   0.00   41.8    97    0.5   184     1.4   836.0    0.00 
  84   21:30   0.00   41.6    97    0.3   151     1.0   836.0    0.00 
  84   21:40   0.00   41.6    97    0.3   213     0.8   836.0    0.00 
  84   21:50   0.00   41.7    97    0.4   211     0.9   836.0    0.00 
  84   22:00   0.00   41.7    97    0.3   330     0.8   836.0    0.00 
  84   22:10   0.00   41.5    97    0.3   217     0.8   836.0    0.00 
  84   22:20   0.00   41.4    96    0.1   227     0.5   836.0    0.00 
  84   22:30   0.00   41.4    96    0.2   314     0.4   836.0    0.00 
  84   22:40   0.00   41.4    96    0.3   194     0.6   836.0    0.00 
  84   22:50   0.00   40.9    96    0.3    33     0.6   836.0    0.00 
  84   23:00   0.00   39.3    94    0.4    80     0.6   836.0    0.00 
  84   23:10   0.00   38.1    93    0.3    80     0.5   836.0    0.00 
  84   23:20   0.00   37.0    93    0.3    78     0.6   836.0    0.00 
  84   23:30   0.00   36.2    94    0.2    75     0.5   836.0    0.00 
  84   23:40   0.00   35.6    95    0.3    77     0.5   836.0    0.00 
  84   23:50   0.00   35.1    96    0.3    72     0.8   836.0    0.00 
  85    0:00   0.00   34.7    96    0.3    45     0.8   836.0    0.00 
  85    0:10   0.00   34.4    96    0.3   359     0.5   836.0    0.00 
  85    0:20   0.00   33.9    97    0.2     6     0.5   836.0    0.00 
  85    0:30   0.00   33.7    97    0.3   353     0.6   836.0    0.00 
  85    0:40   0.00   33.3    97    0.3   358     0.5   836.0    0.00 
  85    0:50   0.00   33.1    97    0.3    20     0.6   836.0    0.00 
  85    1:00   0.00   32.9    97    0.3     3     0.5   836.0    0.00 
  85    1:10   0.00   32.6    97    0.3     0     0.7   835.0    0.00 
  85    1:20   0.00   32.4    98    0.3    26     0.7   835.0    0.00 
  85    1:30   0.00   32.1    98    0.2   344     0.5   835.0    0.00 
  85    1:40   0.00   31.9    98    0.3   347     0.6   835.0    0.00 
  85    1:50   0.00   31.8    98    0.3    16     0.6   835.0    0.00 
  85    2:00   0.00   31.7    98    0.3   360     0.5   835.0    0.00 
  85    2:10   0.00   31.6    98    0.3     8     0.5   835.0    0.00 
  85    2:20   0.00   31.6    98    0.3     5     0.6   835.0    0.00 
  85    2:30   0.00   31.6    98    0.3     1     0.6   835.0    0.00 
  85    2:40   0.00   31.5    98    0.3     7     0.6   835.0    0.00 
  85    2:50   0.00   31.4    98    0.3   356     0.6   835.0    0.00 
  85    3:00   0.00   31.3    98    0.4    25     0.8   835.0    0.00 
  85    3:10   0.00   31.3    98    0.3     6     0.4   835.0    0.00 
  85    3:20   0.00   31.2    98    0.3    15     0.5   835.0    0.00 
  85    3:30   0.00   31.2    98    0.2    15     0.4   835.0    0.00 
  85    3:40   0.00   31.2    98    0.3    24     0.4   835.0    0.00 
  85    3:50   0.00   31.1    98    0.2    26     0.4   835.0    0.00 
  85    4:00   0.00   31.1    98    0.2    23     0.4   835.0    0.00 
  85    4:10   0.00   31.1    98    0.3    27     0.6   835.0    0.00 
  85    4:20   0.00   31.1    98    0.3    11     0.5   835.0    0.00 
  85    4:30   0.00   31.1    98    0.3    15     0.6   835.0    0.00 
  85    4:40   0.00   31.0    99    0.3    11     0.5   835.0    0.00 
  85    4:50   0.00   31.1    99    0.3    24     0.5   835.0    0.00 
  85    5:00   0.00   31.2    99    0.2    16     0.4   835.0    0.00 
  85    5:10   0.00   31.2    99    0.3    26     0.5   835.0    0.00 
  85    5:20   0.00   31.2    99    0.3    11     0.5   835.0    0.00 
  85    5:30   0.00   31.0    99    0.3    13     0.6   835.0    0.00 
  85    5:40   0.00   30.9    99    0.3    12     0.6   835.0    0.00 
  85    5:50   0.00   30.9    99    0.3     4     0.5   835.0    0.00 
  85    6:00   0.00   30.8    99    0.3    20     0.6   835.0    0.00 
  85    6:10   0.00   30.8    99    0.2    13     0.5   836.0    0.00 
  85    6:20   0.01   30.8    99    0.3    25     0.7   836.0    0.00 
  85    6:30   0.01   30.9    99    0.3     5     0.5   836.0    0.00 
  85    6:40   0.01   30.9    99    0.4    34     0.7   836.0    0.00 
  85    6:50   0.02   31.1    99    0.3    26     0.5   836.0    0.00 
  85    7:00   0.02   31.3    99    0.6    40     0.8   836.0    0.00 
  85    7:10   0.03   31.5    99    0.5    50     0.7   836.0    0.00 
  85    7:20   0.05   32.0    99    0.6    48     0.8   836.0    0.00 
  85    7:30   0.04   32.7    99    0.6    50     0.8   836.0    0.00 
  85    7:40   0.03   33.4    98    0.7    49     0.9   836.0    0.00 
  85    7:50   0.03   34.3    98    0.6    57     0.9   836.0    0.00 
  85    8:00   0.04   35.1    98    0.7    53     1.1   836.0    0.00 
  85    8:10   0.04   36.0    98    0.5    60     0.9   836.0    0.00 
  85    8:20   0.04   37.4    97    0.3    86     0.8   836.0    0.00 
  85    8:30   0.04   39.1    95    0.3    76     0.7   836.0    0.00 
  85    8:40   0.05   41.3    90    0.4   110     1.4   836.0    0.00 
  85    8:50   0.04   45.0    76    0.4    40     1.0   836.0    0.00 
  85    9:00   0.04   47.0    71    0.5   185     1.1   836.0    0.00 
  85    9:10   0.05   49.0    66    0.9   205     2.2   836.0    0.00 
  85    9:20   0.07   49.5    67    1.0   216     2.0   836.0    0.00 
  85    9:30   0.35   49.5    71    1.2   224     2.5   836.0    0.00 
  85    9:40   0.29   48.6    73    1.0   173     2.3   837.0    0.00 
  85    9:50   0.05   47.8    75    1.2   172     3.3   837.0    0.00 
  85   10:00   0.05   47.3    77    1.1   182     2.7   837.0    0.00 
  85   10:10   0.05   47.6    75    1.2   214     3.1   837.0    0.00 
  85   10:20   0.06   48.1    72    1.1   211     2.8   837.0    0.00 
  85   10:30   0.06   48.4    73    0.9   173     2.8   837.0    0.00 
  85   10:40   0.14   47.7    78    1.3   206     3.5   837.0    0.00 
  85   10:50   0.15   46.9    80    1.1   218     2.6   837.0    0.00 
  85   11:00   0.35   47.9    79    1.2   179     3.9   837.0    0.00 
  85   11:10   0.83   47.7    80    0.9   188     2.4   837.0    0.00 
  85   11:20   1.03   49.2    75    1.2   224     2.3   837.0    0.00 
  85   11:30   1.01   50.6    72    1.1   235     2.7   837.0    0.00 
  85   11:40   1.00   50.7    72    1.3   209     2.6   837.0    0.00 
  85   11:50   1.02   50.7    72    1.1   236     2.5   837.0    0.00 
  85   12:00   1.02   51.5    70    1.1   229     2.3   837.0    0.00 
  85   12:10   1.03   51.9    70    1.0   223     2.7   837.0    0.00 
  85   12:20   1.03   52.4    68    1.2   216     2.7   836.0    0.00 
  85   12:30   1.05   52.7    67    1.3   210     2.7   837.0    0.00 
  85   12:40   0.72   50.6    74    1.2   240     2.5   837.0    0.00 
  85   12:50   0.43   48.8    79    0.9   187     2.5   837.0    0.00 
  85   13:00   0.41   49.6    78    1.0   234     2.4   837.0    0.00 
  85   13:10   0.44   48.6    79    1.0   216     2.3   837.0    0.00 
  85   13:20   0.58   48.6    78    0.9   225     2.4   837.0    0.00 
  85   13:30   0.78   49.3    77    1.1   232     2.6   837.0    0.00 
  85   13:40   0.71   49.6    76    1.0   216     2.9   837.0    0.00 
  85   13:50   0.89   50.8    72    1.2   234     3.0   836.0    0.00 
  85   14:00   0.87   51.7    71    1.1   213     2.7   836.0    0.00 
  85   14:10   0.84   51.3    70    1.2   229     2.9   836.0    0.00 
  85   14:20   0.80   51.7    69    1.1   222     2.6   836.0    0.00 
  85   14:30   0.68   51.3    69    1.1   210     2.7   836.0    0.00 
  85   14:40   0.75   51.2    68    1.0   166     3.2   836.0    0.00 

Return to James Reserve graphs page.


Western Regional Climate Center,wrcc@dri.edu